sensor_id;sensor_type;location;lat;lon;timestamp;P1;durP1;ratioP1;P2;durP2;ratioP2
7166;SDS011;3625;51.762;14.320;2022-07-29T00:03:46;3.35;;;2.45;;
7166;SDS011;3625;51.762;14.320;2022-07-29T00:06:16;6.47;;;2.47;;
7166;SDS011;3625;51.762;14.320;2022-07-29T00:08:45;7.07;;;2.53;;
7166;SDS011;3625;51.762;14.320;2022-07-29T00:11:14;5.18;;;2.38;;
7166;SDS011;3625;51.762;14.320;2022-07-29T00:13:42;4.88;;;2.38;;
7166;SDS011;3625;51.762;14.320;2022-07-29T00:16:16;2.83;;;2.20;;
7166;SDS011;3625;51.762;14.320;2022-07-29T00:18:46;4.45;;;2.35;;
7166;SDS011;3625;51.762;14.320;2022-07-29T00:21:15;4.50;;;2.60;;
7166;SDS011;3625;51.762;14.320;2022-07-29T00:23:44;3.60;;;2.30;;
7166;SDS011;3625;51.762;14.320;2022-07-29T00:26:12;5.13;;;2.10;;
7166;SDS011;3625;51.762;14.320;2022-07-29T00:28:41;3.70;;;2.38;;
7166;SDS011;3625;51.762;14.320;2022-07-29T00:31:10;4.13;;;2.40;;
7166;SDS011;3625;51.762;14.320;2022-07-29T00:33:39;6.10;;;2.63;;
7166;SDS011;3625;51.762;14.320;2022-07-29T00:36:10;3.47;;;2.10;;
7166;SDS011;3625;51.762;14.320;2022-07-29T00:38:37;4.70;;;2.60;;
7166;SDS011;3625;51.762;14.320;2022-07-29T00:41:08;3.55;;;2.35;;
7166;SDS011;3625;51.762;14.320;2022-07-29T00:43:36;2.15;;;1.90;;
7166;SDS011;3625;51.762;14.320;2022-07-29T00:46:05;2.92;;;2.03;;
7166;SDS011;3625;51.762;14.320;2022-07-29T00:48:34;5.40;;;2.72;;
7166;SDS011;3625;51.762;14.320;2022-07-29T00:51:04;6.25;;;2.35;;
7166;SDS011;3625;51.762;14.320;2022-07-29T00:53:35;5.03;;;2.50;;
7166;SDS011;3625;51.762;14.320;2022-07-29T00:56:05;5.30;;;2.53;;
7166;SDS011;3625;51.762;14.320;2022-07-29T00:58:34;4.68;;;2.45;;
7166;SDS011;3625;51.762;14.320;2022-07-29T01:01:03;5.10;;;2.33;;
7166;SDS011;3625;51.762;14.320;2022-07-29T01:03:32;4.90;;;2.55;;
7166;SDS011;3625;51.762;14.320;2022-07-29T01:06:00;4.30;;;2.37;;
7166;SDS011;3625;51.762;14.320;2022-07-29T01:08:29;4.10;;;3.28;;
7166;SDS011;3625;51.762;14.320;2022-07-29T01:11:02;5.40;;;2.60;;
7166;SDS011;3625;51.762;14.320;2022-07-29T01:13:31;6.53;;;2.70;;
7166;SDS011;3625;51.762;14.320;2022-07-29T01:16:02;2.78;;;2.42;;
7166;SDS011;3625;51.762;14.320;2022-07-29T01:18:41;6.45;;;3.10;;
7166;SDS011;3625;51.762;14.320;2022-07-29T01:21:27;3.87;;;2.50;;
7166;SDS011;3625;51.762;14.320;2022-07-29T01:24:25;3.60;;;2.50;;
7166;SDS011;3625;51.762;14.320;2022-07-29T01:27:33;3.65;;;2.30;;
7166;SDS011;3625;51.762;14.320;2022-07-29T01:30:20;5.70;;;2.70;;
7166;SDS011;3625;51.762;14.320;2022-07-29T01:32:54;4.28;;;2.65;;
7166;SDS011;3625;51.762;14.320;2022-07-29T01:35:31;7.03;;;2.63;;
7166;SDS011;3625;51.762;14.320;2022-07-29T01:38:09;3.10;;;2.70;;
7166;SDS011;3625;51.762;14.320;2022-07-29T01:40:45;5.18;;;3.08;;
7166;SDS011;3625;51.762;14.320;2022-07-29T01:43:19;6.22;;;2.67;;
7166;SDS011;3625;51.762;14.320;2022-07-29T01:46:00;4.53;;;2.80;;
7166;SDS011;3625;51.762;14.320;2022-07-29T01:48:34;4.50;;;2.80;;
7166;SDS011;3625;51.762;14.320;2022-07-29T01:51:11;4.20;;;2.73;;
7166;SDS011;3625;51.762;14.320;2022-07-29T01:53:46;4.63;;;2.72;;
7166;SDS011;3625;51.762;14.320;2022-07-29T01:56:25;6.17;;;2.80;;
7166;SDS011;3625;51.762;14.320;2022-07-29T01:59:00;7.30;;;2.85;;
7166;SDS011;3625;51.762;14.320;2022-07-29T02:01:33;4.57;;;2.80;;
7166;SDS011;3625;51.762;14.320;2022-07-29T02:04:06;7.87;;;3.00;;
7166;SDS011;3625;51.762;14.320;2022-07-29T02:06:55;4.63;;;2.73;;
7166;SDS011;3625;51.762;14.320;2022-07-29T02:09:29;4.10;;;2.63;;
7166;SDS011;3625;51.762;14.320;2022-07-29T02:12:00;6.57;;;3.03;;
7166;SDS011;3625;51.762;14.320;2022-07-29T02:14:33;4.67;;;3.10;;
7166;SDS011;3625;51.762;14.320;2022-07-29T02:17:08;6.63;;;2.63;;
7166;SDS011;3625;51.762;14.320;2022-07-29T02:19:41;5.63;;;2.73;;
7166;SDS011;3625;51.762;14.320;2022-07-29T02:22:12;3.60;;;2.40;;
7166;SDS011;3625;51.762;14.320;2022-07-29T02:24:42;5.97;;;2.63;;
7166;SDS011;3625;51.762;14.320;2022-07-29T02:27:13;6.10;;;3.42;;
7166;SDS011;3625;51.762;14.320;2022-07-29T02:29:47;6.70;;;3.10;;
7166;SDS011;3625;51.762;14.320;2022-07-29T02:32:21;3.10;;;2.40;;
7166;SDS011;3625;51.762;14.320;2022-07-29T02:34:52;4.50;;;2.47;;
7166;SDS011;3625;51.762;14.320;2022-07-29T02:37:23;7.55;;;3.25;;
7166;SDS011;3625;51.762;14.320;2022-07-29T02:39:54;8.03;;;2.93;;
7166;SDS011;3625;51.762;14.320;2022-07-29T02:42:26;5.23;;;3.30;;
7166;SDS011;3625;51.762;14.320;2022-07-29T02:44:56;3.70;;;2.77;;
7166;SDS011;3625;51.762;14.320;2022-07-29T02:47:27;3.80;;;3.00;;
7166;SDS011;3625;51.762;14.320;2022-07-29T02:50:08;6.43;;;2.90;;
7166;SDS011;3625;51.762;14.320;2022-07-29T02:52:44;7.27;;;3.10;;
7166;SDS011;3625;51.762;14.320;2022-07-29T02:55:22;2.83;;;2.60;;
7166;SDS011;3625;51.762;14.320;2022-07-29T02:57:58;5.17;;;2.90;;
7166;SDS011;3625;51.762;14.320;2022-07-29T03:00:31;8.47;;;3.43;;
7166;SDS011;3625;51.762;14.320;2022-07-29T03:03:07;5.07;;;3.30;;
7166;SDS011;3625;51.762;14.320;2022-07-29T03:05:40;5.47;;;3.07;;
7166;SDS011;3625;51.762;14.320;2022-07-29T03:08:10;4.60;;;2.80;;
7166;SDS011;3625;51.762;14.320;2022-07-29T03:10:42;3.73;;;3.00;;
7166;SDS011;3625;51.762;14.320;2022-07-29T03:13:13;5.73;;;2.70;;
7166;SDS011;3625;51.762;14.320;2022-07-29T03:15:43;5.77;;;2.63;;
7166;SDS011;3625;51.762;14.320;2022-07-29T03:18:16;6.73;;;2.93;;
7166;SDS011;3625;51.762;14.320;2022-07-29T03:20:45;3.70;;;2.77;;
7166;SDS011;3625;51.762;14.320;2022-07-29T03:23:18;6.27;;;2.93;;
7166;SDS011;3625;51.762;14.320;2022-07-29T03:25:49;5.10;;;2.80;;
7166;SDS011;3625;51.762;14.320;2022-07-29T03:28:17;10.67;;;3.00;;
7166;SDS011;3625;51.762;14.320;2022-07-29T03:30:47;4.20;;;2.83;;
7166;SDS011;3625;51.762;14.320;2022-07-29T03:33:18;6.03;;;3.00;;
7166;SDS011;3625;51.762;14.320;2022-07-29T03:35:47;4.77;;;2.60;;
7166;SDS011;3625;51.762;14.320;2022-07-29T03:38:16;4.40;;;2.93;;
7166;SDS011;3625;51.762;14.320;2022-07-29T03:40:46;4.68;;;2.72;;
7166;SDS011;3625;51.762;14.320;2022-07-29T03:43:21;3.78;;;2.90;;
7166;SDS011;3625;51.762;14.320;2022-07-29T03:45:56;3.42;;;2.92;;
7166;SDS011;3625;51.762;14.320;2022-07-29T03:48:30;10.70;;;3.30;;
7166;SDS011;3625;51.762;14.320;2022-07-29T03:51:04;7.18;;;2.83;;
7166;SDS011;3625;51.762;14.320;2022-07-29T03:53:33;5.13;;;2.90;;
7166;SDS011;3625;51.762;14.320;2022-07-29T03:56:03;5.18;;;2.90;;
7166;SDS011;3625;51.762;14.320;2022-07-29T03:58:34;6.93;;;3.15;;
7166;SDS011;3625;51.762;14.320;2022-07-29T04:01:03;4.70;;;2.80;;
7166;SDS011;3625;51.762;14.320;2022-07-29T04:03:33;2.97;;;2.53;;
7166;SDS011;3625;51.762;14.320;2022-07-29T04:06:04;7.38;;;3.50;;
7166;SDS011;3625;51.762;14.320;2022-07-29T04:08:35;3.80;;;2.90;;
7166;SDS011;3625;51.762;14.320;2022-07-29T04:11:04;6.63;;;2.72;;
7166;SDS011;3625;51.762;14.320;2022-07-29T04:13:33;7.57;;;2.97;;
7166;SDS011;3625;51.762;14.320;2022-07-29T04:16:02;4.18;;;3.05;;
7166;SDS011;3625;51.762;14.320;2022-07-29T04:18:33;3.80;;;2.75;;
7166;SDS011;3625;51.762;14.320;2022-07-29T04:21:02;3.88;;;2.83;;
7166;SDS011;3625;51.762;14.320;2022-07-29T04:23:31;6.68;;;3.03;;
7166;SDS011;3625;51.762;14.320;2022-07-29T04:26:00;4.60;;;2.67;;
7166;SDS011;3625;51.762;14.320;2022-07-29T04:28:29;4.53;;;2.72;;
7166;SDS011;3625;51.762;14.320;2022-07-29T04:30:57;4.35;;;2.55;;
7166;SDS011;3625;51.762;14.320;2022-07-29T04:33:26;7.53;;;2.78;;
7166;SDS011;3625;51.762;14.320;2022-07-29T04:35:56;5.25;;;2.70;;
7166;SDS011;3625;51.762;14.320;2022-07-29T04:38:26;3.75;;;2.53;;
7166;SDS011;3625;51.762;14.320;2022-07-29T04:40:55;4.68;;;3.05;;
7166;SDS011;3625;51.762;14.320;2022-07-29T04:43:24;3.40;;;2.83;;
7166;SDS011;3625;51.762;14.320;2022-07-29T04:46:02;4.18;;;2.88;;
7166;SDS011;3625;51.762;14.320;2022-07-29T04:48:31;6.38;;;2.70;;
7166;SDS011;3625;51.762;14.320;2022-07-29T04:51:01;4.70;;;2.83;;
7166;SDS011;3625;51.762;14.320;2022-07-29T04:53:30;4.55;;;2.78;;
7166;SDS011;3625;51.762;14.320;2022-07-29T04:55:58;5.90;;;2.65;;
7166;SDS011;3625;51.762;14.320;2022-07-29T04:58:27;6.63;;;3.17;;
7166;SDS011;3625;51.762;14.320;2022-07-29T05:00:56;6.15;;;2.88;;
7166;SDS011;3625;51.762;14.320;2022-07-29T05:03:25;6.57;;;3.00;;
7166;SDS011;3625;51.762;14.320;2022-07-29T05:05:54;4.75;;;2.60;;
7166;SDS011;3625;51.762;14.320;2022-07-29T05:08:24;6.63;;;2.80;;
7166;SDS011;3625;51.762;14.320;2022-07-29T05:10:53;6.85;;;2.80;;
7166;SDS011;3625;51.762;14.320;2022-07-29T05:13:21;4.00;;;2.63;;
7166;SDS011;3625;51.762;14.320;2022-07-29T05:15:50;5.07;;;2.65;;
7166;SDS011;3625;51.762;14.320;2022-07-29T05:18:19;5.00;;;2.92;;
7166;SDS011;3625;51.762;14.320;2022-07-29T05:20:51;5.57;;;2.60;;
7166;SDS011;3625;51.762;14.320;2022-07-29T05:23:20;3.65;;;2.83;;
7166;SDS011;3625;51.762;14.320;2022-07-29T05:25:51;5.95;;;3.15;;
7166;SDS011;3625;51.762;14.320;2022-07-29T05:28:19;10.05;;;3.40;;
7166;SDS011;3625;51.762;14.320;2022-07-29T05:30:48;10.73;;;3.15;;
7166;SDS011;3625;51.762;14.320;2022-07-29T05:33:17;5.97;;;2.92;;
7166;SDS011;3625;51.762;14.320;2022-07-29T05:36:02;3.92;;;2.88;;
7166;SDS011;3625;51.762;14.320;2022-07-29T05:38:33;3.60;;;2.83;;
7166;SDS011;3625;51.762;14.320;2022-07-29T05:41:04;4.80;;;3.10;;
7166;SDS011;3625;51.762;14.320;2022-07-29T05:43:33;8.93;;;3.20;;
7166;SDS011;3625;51.762;14.320;2022-07-29T05:46:01;4.38;;;2.95;;
7166;SDS011;3625;51.762;14.320;2022-07-29T05:48:30;6.38;;;2.92;;
7166;SDS011;3625;51.762;14.320;2022-07-29T05:50:59;5.05;;;2.95;;
7166;SDS011;3625;51.762;14.320;2022-07-29T05:53:28;7.00;;;2.78;;
7166;SDS011;3625;51.762;14.320;2022-07-29T05:55:56;5.15;;;2.70;;
7166;SDS011;3625;51.762;14.320;2022-07-29T05:58:26;6.45;;;3.10;;
7166;SDS011;3625;51.762;14.320;2022-07-29T06:00:56;7.30;;;2.97;;
7166;SDS011;3625;51.762;14.320;2022-07-29T06:03:25;3.47;;;2.50;;
7166;SDS011;3625;51.762;14.320;2022-07-29T06:05:55;6.45;;;2.70;;
7166;SDS011;3625;51.762;14.320;2022-07-29T06:08:23;4.60;;;3.05;;
7166;SDS011;3625;51.762;14.320;2022-07-29T06:10:52;3.85;;;2.50;;
7166;SDS011;3625;51.762;14.320;2022-07-29T06:13:21;8.07;;;2.75;;
7166;SDS011;3625;51.762;14.320;2022-07-29T06:15:51;5.35;;;2.88;;
7166;SDS011;3625;51.762;14.320;2022-07-29T06:18:20;4.03;;;2.67;;
7166;SDS011;3625;51.762;14.320;2022-07-29T06:20:50;4.05;;;2.30;;
7166;SDS011;3625;51.762;14.320;2022-07-29T06:23:19;9.70;;;2.80;;
7166;SDS011;3625;51.762;14.320;2022-07-29T06:25:48;4.20;;;2.40;;
7166;SDS011;3625;51.762;14.320;2022-07-29T06:28:17;6.10;;;2.63;;
7166;SDS011;3625;51.762;14.320;2022-07-29T06:30:46;4.38;;;2.40;;
7166;SDS011;3625;51.762;14.320;2022-07-29T06:33:19;7.53;;;2.83;;
7166;SDS011;3625;51.762;14.320;2022-07-29T06:35:48;6.20;;;2.72;;
7166;SDS011;3625;51.762;14.320;2022-07-29T06:38:20;5.05;;;2.50;;
7166;SDS011;3625;51.762;14.320;2022-07-29T06:40:59;8.85;;;3.22;;
7166;SDS011;3625;51.762;14.320;2022-07-29T06:43:33;4.40;;;2.70;;
7166;SDS011;3625;51.762;14.320;2022-07-29T06:46:16;2.88;;;2.45;;
7166;SDS011;3625;51.762;14.320;2022-07-29T06:48:49;4.45;;;2.40;;
7166;SDS011;3625;51.762;14.320;2022-07-29T06:51:19;7.38;;;2.88;;
7166;SDS011;3625;51.762;14.320;2022-07-29T06:53:49;3.15;;;2.90;;
7166;SDS011;3625;51.762;14.320;2022-07-29T06:56:26;3.97;;;2.33;;
7166;SDS011;3625;51.762;14.320;2022-07-29T06:58:54;3.85;;;2.63;;
7166;SDS011;3625;51.762;14.320;2022-07-29T07:01:23;2.97;;;2.40;;
7166;SDS011;3625;51.762;14.320;2022-07-29T07:03:53;6.55;;;2.88;;
7166;SDS011;3625;51.762;14.320;2022-07-29T07:06:22;3.50;;;2.47;;
7166;SDS011;3625;51.762;14.320;2022-07-29T07:08:51;3.78;;;2.50;;
7166;SDS011;3625;51.762;14.320;2022-07-29T07:11:20;3.55;;;2.72;;
7166;SDS011;3625;51.762;14.320;2022-07-29T07:13:48;4.53;;;2.60;;
7166;SDS011;3625;51.762;14.320;2022-07-29T07:16:17;5.30;;;2.95;;
7166;SDS011;3625;51.762;14.320;2022-07-29T07:18:46;5.53;;;2.97;;
7166;SDS011;3625;51.762;14.320;2022-07-29T07:21:16;3.63;;;2.83;;
7166;SDS011;3625;51.762;14.320;2022-07-29T07:23:45;7.47;;;2.80;;
7166;SDS011;3625;51.762;14.320;2022-07-29T07:26:14;3.08;;;2.40;;
7166;SDS011;3625;51.762;14.320;2022-07-29T07:28:43;6.95;;;3.10;;
7166;SDS011;3625;51.762;14.320;2022-07-29T07:31:11;4.45;;;2.65;;
7166;SDS011;3625;51.762;14.320;2022-07-29T07:33:40;6.13;;;3.10;;
7166;SDS011;3625;51.762;14.320;2022-07-29T07:36:09;6.15;;;2.88;;
7166;SDS011;3625;51.762;14.320;2022-07-29T07:38:39;9.48;;;3.13;;
7166;SDS011;3625;51.762;14.320;2022-07-29T07:41:08;4.50;;;2.60;;
7166;SDS011;3625;51.762;14.320;2022-07-29T07:43:36;3.65;;;2.40;;
7166;SDS011;3625;51.762;14.320;2022-07-29T07:46:05;4.75;;;3.00;;
7166;SDS011;3625;51.762;14.320;2022-07-29T07:48:34;7.18;;;3.13;;
7166;SDS011;3625;51.762;14.320;2022-07-29T07:51:03;5.95;;;3.15;;
7166;SDS011;3625;51.762;14.320;2022-07-29T07:53:32;5.25;;;2.92;;
7166;SDS011;3625;51.762;14.320;2022-07-29T07:56:02;6.57;;;2.97;;
7166;SDS011;3625;51.762;14.320;2022-07-29T07:58:37;7.80;;;2.70;;
7166;SDS011;3625;51.762;14.320;2022-07-29T08:01:06;4.60;;;2.78;;
7166;SDS011;3625;51.762;14.320;2022-07-29T08:03:35;6.68;;;3.35;;
7166;SDS011;3625;51.762;14.320;2022-07-29T08:06:04;6.65;;;2.70;;
7166;SDS011;3625;51.762;14.320;2022-07-29T08:08:34;4.88;;;2.53;;
7166;SDS011;3625;51.762;14.320;2022-07-29T08:11:04;5.07;;;3.25;;
7166;SDS011;3625;51.762;14.320;2022-07-29T08:13:35;7.15;;;2.92;;
7166;SDS011;3625;51.762;14.320;2022-07-29T08:16:06;5.82;;;2.45;;
7166;SDS011;3625;51.762;14.320;2022-07-29T08:18:43;5.90;;;2.47;;
7166;SDS011;3625;51.762;14.320;2022-07-29T08:21:13;8.63;;;2.95;;
7166;SDS011;3625;51.762;14.320;2022-07-29T08:23:43;4.80;;;2.90;;
7166;SDS011;3625;51.762;14.320;2022-07-29T08:26:28;7.20;;;3.10;;
7166;SDS011;3625;51.762;14.320;2022-07-29T08:28:57;6.93;;;2.53;;
7166;SDS011;3625;51.762;14.320;2022-07-29T08:31:26;5.40;;;2.90;;
7166;SDS011;3625;51.762;14.320;2022-07-29T08:33:54;7.65;;;2.85;;
7166;SDS011;3625;51.762;14.320;2022-07-29T08:36:26;5.95;;;2.65;;
7166;SDS011;3625;51.762;14.320;2022-07-29T08:38:54;7.47;;;3.03;;
7166;SDS011;3625;51.762;14.320;2022-07-29T08:41:23;4.15;;;2.72;;
7166;SDS011;3625;51.762;14.320;2022-07-29T08:43:54;5.43;;;2.92;;
7166;SDS011;3625;51.762;14.320;2022-07-29T08:46:23;6.75;;;2.60;;
7166;SDS011;3625;51.762;14.320;2022-07-29T08:48:51;4.93;;;2.80;;
7166;SDS011;3625;51.762;14.320;2022-07-29T08:51:21;5.93;;;3.03;;
7166;SDS011;3625;51.762;14.320;2022-07-29T08:53:51;5.10;;;2.92;;
7166;SDS011;3625;51.762;14.320;2022-07-29T08:56:22;5.63;;;2.88;;
7166;SDS011;3625;51.762;14.320;2022-07-29T08:58:52;5.40;;;3.05;;
7166;SDS011;3625;51.762;14.320;2022-07-29T09:01:30;5.40;;;3.10;;
7166;SDS011;3625;51.762;14.320;2022-07-29T09:04:10;5.85;;;2.90;;
7166;SDS011;3625;51.762;14.320;2022-07-29T09:06:42;5.95;;;3.00;;
7166;SDS011;3625;51.762;14.320;2022-07-29T09:09:13;6.95;;;3.05;;
7166;SDS011;3625;51.762;14.320;2022-07-29T09:11:43;4.72;;;3.10;;
7166;SDS011;3625;51.762;14.320;2022-07-29T09:14:13;8.43;;;3.45;;
7166;SDS011;3625;51.762;14.320;2022-07-29T09:16:47;5.18;;;2.83;;
7166;SDS011;3625;51.762;14.320;2022-07-29T09:19:27;6.40;;;2.88;;
7166;SDS011;3625;51.762;14.320;2022-07-29T09:21:58;5.05;;;2.90;;
7166;SDS011;3625;51.762;14.320;2022-07-29T09:24:36;4.50;;;2.85;;
7166;SDS011;3625;51.762;14.320;2022-07-29T09:27:09;6.25;;;2.80;;
7166;SDS011;3625;51.762;14.320;2022-07-29T09:29:56;5.75;;;3.35;;
7166;SDS011;3625;51.762;14.320;2022-07-29T09:32:27;4.65;;;2.65;;
7166;SDS011;3625;51.762;14.320;2022-07-29T09:35:19;2.97;;;2.42;;
7166;SDS011;3625;51.762;14.320;2022-07-29T09:37:50;3.75;;;2.40;;
7166;SDS011;3625;51.762;14.320;2022-07-29T09:40:20;4.15;;;2.83;;
7166;SDS011;3625;51.762;14.320;2022-07-29T09:42:52;4.20;;;2.88;;
7166;SDS011;3625;51.762;14.320;2022-07-29T09:45:29;5.25;;;2.97;;
7166;SDS011;3625;51.762;14.320;2022-07-29T09:47:59;5.55;;;3.20;;
7166;SDS011;3625;51.762;14.320;2022-07-29T09:50:42;7.13;;;2.97;;
7166;SDS011;3625;51.762;14.320;2022-07-29T09:53:17;6.32;;;2.80;;
7166;SDS011;3625;51.762;14.320;2022-07-29T09:55:59;3.42;;;2.50;;
7166;SDS011;3625;51.762;14.320;2022-07-29T09:58:28;8.43;;;2.97;;
7166;SDS011;3625;51.762;14.320;2022-07-29T10:01:04;6.50;;;2.65;;
7166;SDS011;3625;51.762;14.320;2022-07-29T10:03:33;5.03;;;2.70;;
7166;SDS011;3625;51.762;14.320;2022-07-29T10:06:32;3.78;;;2.67;;
7166;SDS011;3625;51.762;14.320;2022-07-29T10:09:10;3.20;;;2.63;;
7166;SDS011;3625;51.762;14.320;2022-07-29T10:11:39;4.82;;;2.47;;
7166;SDS011;3625;51.762;14.320;2022-07-29T10:14:15;2.58;;;2.30;;
7166;SDS011;3625;51.762;14.320;2022-07-29T10:16:45;3.65;;;2.40;;
7166;SDS011;3625;51.762;14.320;2022-07-29T10:19:14;5.65;;;2.65;;
7166;SDS011;3625;51.762;14.320;2022-07-29T10:21:44;4.85;;;2.53;;
7166;SDS011;3625;51.762;14.320;2022-07-29T10:24:13;4.40;;;2.25;;
7166;SDS011;3625;51.762;14.320;2022-07-29T10:26:43;5.90;;;2.90;;
7166;SDS011;3625;51.762;14.320;2022-07-29T10:29:13;5.18;;;2.42;;
7166;SDS011;3625;51.762;14.320;2022-07-29T10:31:43;4.00;;;2.85;;
7166;SDS011;3625;51.762;14.320;2022-07-29T10:34:34;3.58;;;2.30;;
7166;SDS011;3625;51.762;14.320;2022-07-29T10:37:26;6.45;;;2.50;;
7166;SDS011;3625;51.762;14.320;2022-07-29T10:40:15;4.95;;;2.80;;
7166;SDS011;3625;51.762;14.320;2022-07-29T10:43:16;4.93;;;2.60;;
7166;SDS011;3625;51.762;14.320;2022-07-29T10:45:54;5.78;;;2.78;;
7166;SDS011;3625;51.762;14.320;2022-07-29T10:48:27;4.65;;;2.30;;
7166;SDS011;3625;51.762;14.320;2022-07-29T10:50:56;2.10;;;1.70;;
7166;SDS011;3625;51.762;14.320;2022-07-29T10:56:28;4.50;;;2.42;;
7166;SDS011;3625;51.762;14.320;2022-07-29T11:02:01;3.83;;;2.63;;
7166;SDS011;3625;51.762;14.320;2022-07-29T11:05:13;5.60;;;2.58;;
7166;SDS011;3625;51.762;14.320;2022-07-29T11:10:53;6.15;;;2.78;;
7166;SDS011;3625;51.762;14.320;2022-07-29T11:14:09;4.32;;;2.80;;
7166;SDS011;3625;51.762;14.320;2022-07-29T11:19:51;5.28;;;2.45;;
7166;SDS011;3625;51.762;14.320;2022-07-29T11:22:41;4.00;;;2.55;;
7166;SDS011;3625;51.762;14.320;2022-07-29T11:25:12;3.47;;;2.30;;
7166;SDS011;3625;51.762;14.320;2022-07-29T11:27:43;5.45;;;2.38;;
7166;SDS011;3625;51.762;14.320;2022-07-29T11:30:13;3.10;;;2.38;;
7166;SDS011;3625;51.762;14.320;2022-07-29T11:32:42;4.40;;;2.80;;
7166;SDS011;3625;51.762;14.320;2022-07-29T11:35:15;5.68;;;2.65;;
7166;SDS011;3625;51.762;14.320;2022-07-29T11:41:20;3.65;;;2.35;;
7166;SDS011;3625;51.762;14.320;2022-07-29T11:43:51;3.38;;;2.13;;
7166;SDS011;3625;51.762;14.320;2022-07-29T11:49:18;4.18;;;2.15;;
7166;SDS011;3625;51.762;14.320;2022-07-29T11:51:58;3.80;;;2.30;;
7166;SDS011;3625;51.762;14.320;2022-07-29T11:54:32;4.15;;;2.00;;
7166;SDS011;3625;51.762;14.320;2022-07-29T11:57:22;4.25;;;2.15;;
7166;SDS011;3625;51.762;14.320;2022-07-29T12:00:03;3.78;;;2.05;;
7166;SDS011;3625;51.762;14.320;2022-07-29T12:02:38;4.70;;;2.50;;
7166;SDS011;3625;51.762;14.320;2022-07-29T12:05:14;5.45;;;2.60;;
7166;SDS011;3625;51.762;14.320;2022-07-29T12:10:53;2.92;;;2.20;;
7166;SDS011;3625;51.762;14.320;2022-07-29T12:13:22;3.08;;;2.53;;
7166;SDS011;3625;51.762;14.320;2022-07-29T12:16:03;3.80;;;2.50;;
7166;SDS011;3625;51.762;14.320;2022-07-29T12:18:32;3.13;;;2.35;;
7166;SDS011;3625;51.762;14.320;2022-07-29T12:21:02;2.75;;;2.30;;
7166;SDS011;3625;51.762;14.320;2022-07-29T12:23:31;2.67;;;2.05;;
7166;SDS011;3625;51.762;14.320;2022-07-29T12:26:04;2.63;;;1.92;;
7166;SDS011;3625;51.762;14.320;2022-07-29T12:28:47;2.35;;;1.90;;
7166;SDS011;3625;51.762;14.320;2022-07-29T12:31:17;1.92;;;1.80;;
7166;SDS011;3625;51.762;14.320;2022-07-29T12:34:05;2.50;;;1.92;;
7166;SDS011;3625;51.762;14.320;2022-07-29T12:36:35;4.78;;;2.40;;
7166;SDS011;3625;51.762;14.320;2022-07-29T12:39:04;2.38;;;2.15;;
7166;SDS011;3625;51.762;14.320;2022-07-29T12:41:34;5.25;;;2.00;;
7166;SDS011;3625;51.762;14.320;2022-07-29T12:44:04;3.28;;;1.90;;
7166;SDS011;3625;51.762;14.320;2022-07-29T12:46:33;3.95;;;2.35;;
7166;SDS011;3625;51.762;14.320;2022-07-29T12:49:01;6.05;;;2.25;;
7166;SDS011;3625;51.762;14.320;2022-07-29T12:51:32;2.58;;;2.08;;
7166;SDS011;3625;51.762;14.320;2022-07-29T12:54:05;2.40;;;2.20;;
7166;SDS011;3625;51.762;14.320;2022-07-29T12:56:38;3.40;;;2.20;;
7166;SDS011;3625;51.762;14.320;2022-07-29T12:59:11;5.25;;;2.08;;
7166;SDS011;3625;51.762;14.320;2022-07-29T13:01:44;2.47;;;2.28;;
7166;SDS011;3625;51.762;14.320;2022-07-29T13:04:25;4.55;;;1.98;;
7166;SDS011;3625;51.762;14.320;2022-07-29T13:06:59;2.35;;;2.10;;
7166;SDS011;3625;51.762;14.320;2022-07-29T13:09:37;2.92;;;2.22;;
7166;SDS011;3625;51.762;14.320;2022-07-29T13:12:09;5.28;;;2.25;;
7166;SDS011;3625;51.762;14.320;2022-07-29T13:14:40;2.85;;;2.10;;
7166;SDS011;3625;51.762;14.320;2022-07-29T13:17:12;2.20;;;2.00;;
7166;SDS011;3625;51.762;14.320;2022-07-29T13:19:43;2.50;;;2.28;;
7166;SDS011;3625;51.762;14.320;2022-07-29T13:22:14;2.67;;;2.20;;
7166;SDS011;3625;51.762;14.320;2022-07-29T13:24:50;2.95;;;2.10;;
7166;SDS011;3625;51.762;14.320;2022-07-29T13:27:23;5.97;;;2.28;;
7166;SDS011;3625;51.762;14.320;2022-07-29T13:29:54;5.20;;;2.40;;
7166;SDS011;3625;51.762;14.320;2022-07-29T13:32:24;3.42;;;2.10;;
7166;SDS011;3625;51.762;14.320;2022-07-29T13:34:55;4.75;;;2.65;;
7166;SDS011;3625;51.762;14.320;2022-07-29T13:37:25;2.45;;;2.00;;
7166;SDS011;3625;51.762;14.320;2022-07-29T13:39:56;2.60;;;2.15;;
7166;SDS011;3625;51.762;14.320;2022-07-29T13:42:27;3.90;;;2.13;;
7166;SDS011;3625;51.762;14.320;2022-07-29T13:44:56;3.25;;;2.60;;
7166;SDS011;3625;51.762;14.320;2022-07-29T13:47:25;3.03;;;2.35;;
7166;SDS011;3625;51.762;14.320;2022-07-29T13:49:58;4.22;;;2.30;;
7166;SDS011;3625;51.762;14.320;2022-07-29T13:52:28;3.28;;;2.10;;
7166;SDS011;3625;51.762;14.320;2022-07-29T13:54:57;3.72;;;2.35;;
7166;SDS011;3625;51.762;14.320;2022-07-29T13:57:27;5.63;;;2.58;;
7166;SDS011;3625;51.762;14.320;2022-07-29T13:59:56;2.50;;;2.30;;
7166;SDS011;3625;51.762;14.320;2022-07-29T14:02:29;3.60;;;2.20;;
7166;SDS011;3625;51.762;14.320;2022-07-29T14:04:59;2.00;;;1.80;;
7166;SDS011;3625;51.762;14.320;2022-07-29T14:07:33;2.75;;;2.10;;
7166;SDS011;3625;51.762;14.320;2022-07-29T14:10:03;2.88;;;2.00;;
7166;SDS011;3625;51.762;14.320;2022-07-29T14:12:35;2.63;;;2.25;;
7166;SDS011;3625;51.762;14.320;2022-07-29T14:15:05;4.85;;;2.30;;
7166;SDS011;3625;51.762;14.320;2022-07-29T14:17:37;4.63;;;2.20;;
7166;SDS011;3625;51.762;14.320;2022-07-29T14:20:06;2.70;;;2.10;;
7166;SDS011;3625;51.762;14.320;2022-07-29T14:22:35;4.22;;;2.03;;
7166;SDS011;3625;51.762;14.320;2022-07-29T14:25:08;2.70;;;1.92;;
7166;SDS011;3625;51.762;14.320;2022-07-29T14:27:42;2.55;;;2.10;;
7166;SDS011;3625;51.762;14.320;2022-07-29T14:30:11;2.30;;;1.85;;
7166;SDS011;3625;51.762;14.320;2022-07-29T14:32:41;3.22;;;1.77;;
7166;SDS011;3625;51.762;14.320;2022-07-29T14:35:09;3.60;;;1.90;;
7166;SDS011;3625;51.762;14.320;2022-07-29T14:37:38;4.97;;;2.20;;
7166;SDS011;3625;51.762;14.320;2022-07-29T14:40:08;4.35;;;2.28;;
7166;SDS011;3625;51.762;14.320;2022-07-29T14:42:38;3.55;;;2.40;;
7166;SDS011;3625;51.762;14.320;2022-07-29T14:45:09;2.33;;;2.10;;
7166;SDS011;3625;51.762;14.320;2022-07-29T14:47:38;2.53;;;1.80;;
7166;SDS011;3625;51.762;14.320;2022-07-29T14:50:09;3.63;;;2.00;;
7166;SDS011;3625;51.762;14.320;2022-07-29T14:52:37;2.35;;;2.15;;
7166;SDS011;3625;51.762;14.320;2022-07-29T14:55:07;3.70;;;2.00;;
7166;SDS011;3625;51.762;14.320;2022-07-29T14:57:45;2.60;;;2.00;;
7166;SDS011;3625;51.762;14.320;2022-07-29T15:00:17;2.70;;;2.03;;
7166;SDS011;3625;51.762;14.320;2022-07-29T15:02:47;2.58;;;1.98;;
7166;SDS011;3625;51.762;14.320;2022-07-29T15:05:36;3.47;;;1.80;;
7166;SDS011;3625;51.762;14.320;2022-07-29T15:08:05;3.72;;;2.25;;
7166;SDS011;3625;51.762;14.320;2022-07-29T15:10:35;3.53;;;2.08;;
7166;SDS011;3625;51.762;14.320;2022-07-29T15:13:04;3.05;;;1.98;;
7166;SDS011;3625;51.762;14.320;2022-07-29T15:15:34;2.92;;;2.17;;
7166;SDS011;3625;51.762;14.320;2022-07-29T15:18:03;4.50;;;2.92;;
7166;SDS011;3625;51.762;14.320;2022-07-29T15:20:31;3.05;;;2.40;;
7166;SDS011;3625;51.762;14.320;2022-07-29T15:23:00;3.42;;;1.90;;
7166;SDS011;3625;51.762;14.320;2022-07-29T15:25:29;4.05;;;2.10;;
7166;SDS011;3625;51.762;14.320;2022-07-29T15:27:59;3.53;;;2.20;;
7166;SDS011;3625;51.762;14.320;2022-07-29T15:30:29;3.20;;;2.20;;
7166;SDS011;3625;51.762;14.320;2022-07-29T15:33:02;3.90;;;2.10;;
7166;SDS011;3625;51.762;14.320;2022-07-29T15:35:31;4.75;;;2.40;;
7166;SDS011;3625;51.762;14.320;2022-07-29T15:38:06;2.45;;;2.00;;
7166;SDS011;3625;51.762;14.320;2022-07-29T15:40:36;2.67;;;2.17;;
7166;SDS011;3625;51.762;14.320;2022-07-29T15:43:05;2.45;;;2.00;;
7166;SDS011;3625;51.762;14.320;2022-07-29T15:45:35;2.13;;;2.00;;
7166;SDS011;3625;51.762;14.320;2022-07-29T15:48:08;4.05;;;2.20;;
7166;SDS011;3625;51.762;14.320;2022-07-29T15:50:40;4.57;;;2.03;;
7166;SDS011;3625;51.762;14.320;2022-07-29T15:53:12;4.68;;;1.85;;
7166;SDS011;3625;51.762;14.320;2022-07-29T15:55:43;2.70;;;2.05;;